Time;durP1;ratioP1;P1;durP2;ratioP2;P2;SDS_P1;SDS_P2;PMS_P1;PMS_P2;Temp;Humidity;BMP_temperature;BMP_pressure;BME280_temperature;BME280_humidity;BME280_pressure;Samples;Min_cycle;Max_cycle;Signal;HPM_P1;HPM_P2
2022/06/28 00:01:10;;;;;;;6.93;0.65;;;13.80;99.90;;;;;;5045627;28;20022;-71
2022/06/28 00:03:35;;;;;;;4.85;0.73;;;13.80;99.90;;;;;;5027807;28;20029;-69
2022/06/28 00:06:01;;;;;;;4.47;0.80;;;13.80;99.90;;;;;;5023711;28;20507;-71
2022/06/28 00:08:26;;;;;;;3.58;1.00;;;13.70;99.90;;;;;;5042333;28;20748;-72
2022/06/28 00:10:52;;;;;;;5.55;1.35;;;13.70;99.90;;;;;;5042981;28;20044;-69
2022/06/28 00:13:18;;;;;;;9.10;1.55;;;13.70;99.90;;;;;;5040049;28;20393;-71
2022/06/28 00:18:28;;;;;;;3.78;0.95;;;13.70;99.90;;;;;;5049867;28;20060;-71
2022/06/28 00:20:53;;;;;;;2.08;0.60;;;13.70;99.90;;;;;;5037202;28;20112;-70
2022/06/28 00:23:19;;;;;;;2.33;0.80;;;13.70;99.90;;;;;;5031053;28;20044;-71
2022/06/28 00:25:44;;;;;;;4.85;1.27;;;13.70;99.90;;;;;;5041980;28;20057;-69
2022/06/28 00:28:10;;;;;;;4.72;0.68;;;13.60;99.90;;;;;;5042482;28;20187;-72
2022/06/28 00:30:35;;;;;;;3.88;1.02;;;13.70;99.90;;;;;;5022669;28;20052;-69
2022/06/28 00:33:01;;;;;;;6.97;1.33;;;13.60;99.90;;;;;;5025440;28;20025;-71
2022/06/28 00:35:26;;;;;;;4.07;1.08;;;13.60;99.90;;;;;;5041422;28;20037;-72
2022/06/28 00:37:52;;;;;;;3.67;0.90;;;13.60;99.90;;;;;;5042060;28;20106;-69
2022/06/28 00:40:18;;;;;;;6.13;0.73;;;13.60;99.90;;;;;;5039793;28;20021;-72
2022/06/28 00:42:44;;;;;;;3.08;0.70;;;13.60;99.90;;;;;;5043055;28;20036;-71
2022/06/28 00:45:10;;;;;;;3.95;0.70;;;13.60;99.90;;;;;;5021153;28;20033;-71
2022/06/28 00:47:36;;;;;;;3.13;0.73;;;13.60;99.90;;;;;;5025385;28;20115;-71
2022/06/28 00:50:02;;;;;;;4.95;0.68;;;13.60;99.90;;;;;;5021967;28;20129;-70
2022/06/28 00:52:28;;;;;;;10.85;1.02;;;13.60;99.90;;;;;;5041506;28;20037;-72
2022/06/28 00:54:54;;;;;;;3.67;0.95;;;13.60;99.90;;;;;;5023242;28;20552;-70
2022/06/28 00:57:20;;;;;;;3.85;0.93;;;13.60;99.90;;;;;;5022984;28;20141;-70
2022/06/28 00:59:46;;;;;;;3.20;0.60;;;13.60;99.90;;;;;;5042386;28;20120;-70
2022/06/28 01:02:12;;;;;;;13.70;1.50;;;13.60;99.90;;;;;;5041572;28;20053;-70
2022/06/28 01:04:38;;;;;;;3.22;0.70;;;13.60;99.90;;;;;;5039579;28;20048;-71
2022/06/28 01:07:05;;;;;;;3.38;0.60;;;13.60;99.90;;;;;;5024405;28;20477;-71
2022/06/28 01:09:30;;;;;;;4.72;1.25;;;13.50;99.90;;;;;;5049531;28;20489;-69
2022/06/28 01:11:56;;;;;;;8.98;1.75;;;13.50;99.90;;;;;;5039878;28;20048;-71
2022/06/28 01:14:24;;;;;;;8.95;1.02;;;13.50;99.90;;;;;;5040354;28;20099;-71
2022/06/28 01:16:49;;;;;;;5.85;0.63;;;13.60;99.90;;;;;;5023551;28;20079;-71
2022/06/28 01:19:16;;;;;;;6.22;0.65;;;13.50;99.90;;;;;;5038549;28;20436;-70
2022/06/28 01:21:43;;;;;;;3.47;0.60;;;13.50;99.90;;;;;;5042665;28;20065;-70
2022/06/28 01:24:09;;;;;;;10.93;2.30;;;13.50;99.90;;;;;;5037888;28;20505;-71
2022/06/28 01:26:34;;;;;;;2.65;0.70;;;13.50;99.90;;;;;;5028361;28;20040;-72
2022/06/28 01:29:00;;;;;;;6.72;1.45;;;13.50;99.90;;;;;;5048268;28;20048;-69
2022/06/28 01:31:26;;;;;;;3.20;0.75;;;13.40;99.90;;;;;;5026945;28;20131;-70
2022/06/28 01:33:53;;;;;;;7.13;0.98;;;13.40;99.90;;;;;;5028858;28;20064;-72
2022/06/28 01:36:19;;;;;;;5.43;1.30;;;13.40;99.90;;;;;;5039835;28;20044;-69
2022/06/28 01:38:45;;;;;;;8.30;1.63;;;13.40;99.90;;;;;;5041784;28;20541;-70
2022/06/28 01:41:32;;;;;;;9.05;1.73;;;13.40;99.90;;;;;;5038484;28;20105;-70
2022/06/28 01:43:59;;;;;;;4.80;0.70;;;13.30;99.90;;;;;;5022031;28;20402;-71
2022/06/28 01:46:26;;;;;;;3.50;0.82;;;13.30;99.90;;;;;;5022041;28;20048;-69
2022/06/28 01:48:51;;;;;;;4.00;1.23;;;13.30;99.90;;;;;;5040326;28;20026;-72
2022/06/28 01:51:17;;;;;;;5.00;0.88;;;13.20;99.90;;;;;;5039911;28;20044;-69
2022/06/28 01:53:43;;;;;;;4.68;0.65;;;13.20;99.90;;;;;;5021166;28;20037;-71
2022/06/28 01:56:08;;;;;;;4.47;0.88;;;13.20;99.90;;;;;;5041450;28;20083;-71
2022/06/28 01:58:34;;;;;;;6.70;1.02;;;13.20;99.90;;;;;;5040747;28;20037;-71
2022/06/28 02:00:59;;;;;;;3.80;0.50;;;13.10;99.90;;;;;;5049116;28;20029;-71
2022/06/28 02:03:25;;;;;;;2.78;0.50;;;13.10;99.90;;;;;;5028537;28;21992;-72
2022/06/28 02:05:50;;;;;;;6.80;0.65;;;13.00;99.90;;;;;;5052354;28;20037;-71
2022/06/28 02:08:16;;;;;;;2.90;0.70;;;13.00;99.90;;;;;;5047524;28;20024;-68
2022/06/28 02:10:42;;;;;;;3.28;0.50;;;13.00;99.90;;;;;;5021638;28;20045;-71
2022/06/28 02:13:08;;;;;;;3.95;0.60;;;13.00;99.90;;;;;;5022638;28;20025;-72
2022/06/28 02:15:34;;;;;;;1.90;0.55;;;13.00;99.90;;;;;;5021109;28;20046;-72
2022/06/28 02:17:59;;;;;;;6.68;0.60;;;12.90;99.90;;;;;;5041059;28;20025;-70
2022/06/28 02:20:25;;;;;;;2.22;0.70;;;12.90;99.90;;;;;;5038603;28;20032;-68
2022/06/28 02:22:51;;;;;;;1.48;0.60;;;12.90;99.90;;;;;;5039934;28;20026;-71
2022/06/28 02:25:17;;;;;;;1.45;0.50;;;12.90;99.90;;;;;;5038956;28;20035;-69
2022/06/28 02:27:43;;;;;;;9.00;1.05;;;12.90;99.90;;;;;;5021337;28;20041;-70
2022/06/28 02:30:10;;;;;;;4.00;0.88;;;12.90;99.90;;;;;;5039960;28;20037;-70
2022/06/28 02:32:36;;;;;;;2.78;0.50;;;12.80;99.90;;;;;;5038895;28;20167;-71
2022/06/28 02:40:31;;;;;;;1.40;0.50;;;12.70;99.90;;;;;;5032854;28;20049;-70
2022/06/28 02:42:59;;;;;;;3.28;0.52;;;12.70;99.90;;;;;;5022259;28;20037;-71
2022/06/28 02:45:27;;;;;;;2.80;0.50;;;12.70;99.90;;;;;;5037898;28;20397;-70
2022/06/28 02:47:53;;;;;;;4.70;0.85;;;12.70;99.90;;;;;;5040156;28;20069;-71
2022/06/28 02:50:18;;;;;;;2.80;0.70;;;12.70;99.90;;;;;;5037072;28;20592;-69
2022/06/28 02:52:44;;;;;;;8.40;0.82;;;12.60;99.90;;;;;;5038481;28;20037;-70
2022/06/28 02:55:11;;;;;;;3.50;0.45;;;12.60;99.90;;;;;;5041221;28;20025;-72
2022/06/28 02:57:37;;;;;;;4.05;0.57;;;12.60;99.90;;;;;;5040684;28;20490;-72
2022/06/28 03:00:09;;;;;;;3.00;0.60;;;12.60;99.90;;;;;;5043080;28;20029;-69
2022/06/28 03:02:36;;;;;;;3.05;0.40;;;12.60;99.90;;;;;;5034071;28;20405;-71
2022/06/28 03:05:06;;;;;;;2.10;0.70;;;12.60;99.90;;;;;;5022657;28;20029;-70
2022/06/28 03:07:33;;;;;;;5.25;0.50;;;12.60;99.90;;;;;;5033104;28;20402;-70
2022/06/28 03:09:58;;;;;;;4.70;0.47;;;12.60;99.90;;;;;;5040279;28;20033;-72
2022/06/28 03:12:24;;;;;;;4.63;0.60;;;12.60;99.90;;;;;;5036977;28;20040;-71
2022/06/28 03:14:49;;;;;;;6.88;0.80;;;12.50;99.90;;;;;;5039672;28;20036;-70
2022/06/28 03:17:15;;;;;;;4.43;0.60;;;12.60;99.90;;;;;;5038023;28;20025;-71
2022/06/28 03:19:41;;;;;;;3.40;0.47;;;12.50;99.90;;;;;;5038298;28;20401;-71
2022/06/28 03:22:06;;;;;;;4.53;0.60;;;12.50;99.90;;;;;;5038151;28;20033;-73
2022/06/28 03:24:32;;;;;;;1.80;0.40;;;12.50;99.90;;;;;;5036748;28;20091;-71
2022/06/28 03:26:57;;;;;;;2.83;0.88;;;12.50;99.90;;;;;;5038857;28;20029;-71
2022/06/28 03:29:23;;;;;;;4.25;0.50;;;12.50;99.90;;;;;;5021792;28;20039;-72
2022/06/28 03:31:49;;;;;;;1.58;0.73;;;12.50;99.90;;;;;;5038154;28;20079;-69
2022/06/28 03:34:16;;;;;;;7.32;1.08;;;12.50;99.90;;;;;;5040800;28;20512;-72
2022/06/28 03:36:41;;;;;;;7.43;0.93;;;12.50;99.90;;;;;;5038723;28;20057;-72
2022/06/28 03:39:07;;;;;;;5.75;0.95;;;12.50;99.90;;;;;;5037105;28;20524;-70
2022/06/28 03:41:33;;;;;;;5.18;0.80;;;12.50;99.90;;;;;;5036727;28;20036;-71
2022/06/28 03:43:59;;;;;;;8.43;1.60;;;12.60;99.90;;;;;;5025059;28;20036;-71
2022/06/28 03:46:24;;;;;;;5.22;0.70;;;12.60;99.90;;;;;;5045553;28;20466;-72
2022/06/28 03:48:50;;;;;;;1.90;0.60;;;12.50;99.90;;;;;;5045775;28;20041;-70
2022/06/28 03:51:16;;;;;;;7.65;1.08;;;12.60;99.90;;;;;;5040937;28;20398;-72
2022/06/28 03:53:42;;;;;;;2.17;0.88;;;12.60;99.90;;;;;;5020231;28;20076;-72
2022/06/28 03:56:07;;;;;;;3.42;0.57;;;12.60;99.90;;;;;;5038467;28;20424;-69
2022/06/28 03:58:34;;;;;;;4.35;0.90;;;12.50;99.90;;;;;;5037283;28;20612;-70
2022/06/28 04:01:00;;;;;;;5.30;0.65;;;12.60;99.90;;;;;;5039528;28;20032;-72
2022/06/28 04:03:25;;;;;;;2.58;0.68;;;12.60;99.90;;;;;;5031892;28;20397;-71
2022/06/28 04:05:51;;;;;;;4.32;0.98;;;12.60;99.90;;;;;;5039240;28;20029;-72
2022/06/28 04:08:17;;;;;;;2.03;0.70;;;12.60;99.90;;;;;;5036569;28;20029;-72
2022/06/28 04:10:44;;;;;;;13.30;1.77;;;12.60;99.90;;;;;;5020536;28;20075;-69
2022/06/28 04:13:09;;;;;;;2.20;0.73;;;12.60;99.90;;;;;;5019817;28;20036;-71
2022/06/28 04:15:37;;;;;;;6.63;0.82;;;12.60;99.90;;;;;;5037362;28;20080;-71
2022/06/28 04:18:04;;;;;;;11.20;0.88;;;12.60;99.90;;;;;;5039310;28;20083;-71
2022/06/28 04:20:30;;;;;;;1.73;0.85;;;12.60;99.90;;;;;;5019808;28;20476;-71
2022/06/28 04:22:55;;;;;;;5.03;1.00;;;12.60;99.90;;;;;;5049319;28;20052;-71
2022/06/28 04:25:21;;;;;;;5.45;0.80;;;12.70;99.90;;;;;;5046970;28;20017;-70
2022/06/28 04:27:46;;;;;;;2.58;0.57;;;12.60;99.90;;;;;;5040246;28;20128;-72
2022/06/28 04:30:13;;;;;;;2.65;1.13;;;12.70;99.90;;;;;;5037648;28;20026;-72
2022/06/28 04:32:38;;;;;;;3.45;1.10;;;12.70;99.90;;;;;;5040006;28;20052;-70
2022/06/28 04:35:04;;;;;;;5.53;1.27;;;12.70;99.90;;;;;;5041635;28;20456;-70
2022/06/28 04:37:30;;;;;;;6.82;1.33;;;12.80;99.90;;;;;;5038168;28;20147;-72
2022/06/28 04:39:56;;;;;;;5.28;1.50;;;12.80;99.90;;;;;;5043005;28;20036;-71
2022/06/28 04:42:21;;;;;;;8.23;0.90;;;12.80;99.90;;;;;;5039336;28;20033;-72
2022/06/28 04:44:47;;;;;;;5.40;1.15;;;12.80;99.90;;;;;;5024452;28;20044;-71
2022/06/28 04:47:12;;;;;;;5.40;1.13;;;12.90;99.90;;;;;;5038623;28;20033;-71
2022/06/28 04:49:38;;;;;;;4.63;0.80;;;12.90;99.90;;;;;;5023531;28;20033;-70
2022/06/28 04:52:04;;;;;;;5.03;1.10;;;12.90;99.90;;;;;;5041963;28;20110;-69
2022/06/28 04:54:30;;;;;;;6.63;1.02;;;12.90;99.90;;;;;;5039109;28;20129;-72
2022/06/28 04:56:56;;;;;;;7.40;0.80;;;13.00;99.90;;;;;;5024841;28;20037;-71
2022/06/28 04:59:21;;;;;;;5.15;1.00;;;13.00;99.90;;;;;;5022050;28;20041;-71
2022/06/28 05:01:47;;;;;;;3.60;0.93;;;13.00;99.90;;;;;;5043048;28;20470;-72
2022/06/28 05:04:13;;;;;;;4.45;1.02;;;13.00;99.90;;;;;;5021951;28;20516;-71
2022/06/28 05:06:39;;;;;;;8.30;1.33;;;13.10;99.90;;;;;;5023860;28;20512;-71
2022/06/28 05:09:04;;;;;;;5.53;0.98;;;13.10;99.90;;;;;;5041309;28;20481;-72
2022/06/28 05:11:30;;;;;;;4.38;0.93;;;13.20;99.90;;;;;;5021571;28;20064;-71
2022/06/28 05:13:56;;;;;;;4.82;0.75;;;13.20;99.90;;;;;;5042189;28;20039;-71
2022/06/28 05:16:21;;;;;;;10.48;1.35;;;13.30;99.90;;;;;;5045974;28;20033;-70
2022/06/28 05:18:47;;;;;;;8.32;1.15;;;13.30;99.90;;;;;;5042601;28;20056;-73
2022/06/28 05:21:13;;;;;;;6.68;1.05;;;13.40;99.90;;;;;;5035376;28;20026;-71
2022/06/28 05:23:39;;;;;;;10.98;1.58;;;13.40;99.90;;;;;;5035119;28;20038;-72
2022/06/28 05:26:05;;;;;;;4.43;0.77;;;13.50;99.90;;;;;;5052824;28;20025;-71
2022/06/28 05:28:30;;;;;;;4.75;1.00;;;13.60;99.90;;;;;;5034861;28;20040;-73
2022/06/28 05:30:56;;;;;;;8.38;0.88;;;13.60;99.90;;;;;;5045576;28;20030;-72
2022/06/28 05:33:22;;;;;;;8.98;1.45;;;13.70;99.90;;;;;;5046381;28;20112;-70
2022/06/28 05:35:48;;;;;;;16.48;1.55;;;13.80;99.90;;;;;;5021827;28;20431;-72
2022/06/28 05:38:14;;;;;;;5.85;1.92;;;13.90;99.90;;;;;;5040139;28;20022;-72
2022/06/28 05:40:39;;;;;;;8.50;1.73;;;14.00;99.90;;;;;;5040392;28;20032;-68
2022/06/28 05:43:06;;;;;;;6.78;2.08;;;14.10;99.90;;;;;;5021713;28;20051;-69
2022/06/28 05:45:31;;;;;;;8.93;1.50;;;14.20;99.90;;;;;;5022475;28;20114;-73
2022/06/28 05:47:57;;;;;;;7.18;1.20;;;14.40;99.90;;;;;;5024210;28;20404;-71
2022/06/28 05:50:23;;;;;;;8.32;1.95;;;14.80;99.90;;;;;;5047310;28;20550;-69
2022/06/28 05:52:50;;;;;;;11.93;1.73;;;15.20;99.90;;;;;;5040166;28;20034;-72
2022/06/28 05:55:15;;;;;;;9.25;1.25;;;15.70;99.90;;;;;;5023338;28;20516;-72
2022/06/28 05:57:41;;;;;;;10.82;1.10;;;16.20;99.90;;;;;;5040079;28;20025;-72
2022/06/28 06:00:07;;;;;;;8.85;1.40;;;16.80;99.90;;;;;;5040385;28;20029;-69
2022/06/28 06:02:33;;;;;;;12.00;1.20;;;17.30;99.90;;;;;;5040273;28;20590;-71
2022/06/28 06:04:59;;;;;;;7.68;1.13;;;17.70;99.90;;;;;;5038463;28;20124;-71
2022/06/28 06:07:25;;;;;;;5.78;1.60;;;18.00;99.90;;;;;;5040824;28;20029;-72
2022/06/28 06:09:51;;;;;;;9.02;1.50;;;18.20;99.90;;;;;;5038080;28;20094;-70
2022/06/28 06:12:17;;;;;;;12.48;1.88;;;18.30;99.90;;;;;;5039937;28;20094;-71
2022/06/28 06:14:43;;;;;;;9.25;1.50;;;18.30;99.90;;;;;;5020185;28;20041;-71
2022/06/28 06:17:09;;;;;;;11.57;1.63;;;18.40;99.90;;;;;;5038907;28;20776;-71
2022/06/28 06:19:37;;;;;;;8.23;1.70;;;18.50;99.90;;;;;;5039164;28;20068;-72
2022/06/28 06:22:03;;;;;;;8.32;1.38;;;18.50;99.90;;;;;;5033958;28;20117;-72
2022/06/28 06:24:28;;;;;;;5.20;1.10;;;18.50;99.90;;;;;;5033130;28;20124;-72
2022/06/28 06:26:54;;;;;;;8.63;1.23;;;18.40;99.90;;;;;;5022061;28;20189;-70
2022/06/28 06:29:20;;;;;;;5.82;1.23;;;18.40;99.90;;;;;;5040184;28;20036;-71
2022/06/28 06:31:45;;;;;;;5.93;1.67;;;18.40;99.90;;;;;;5019737;28;20042;-72
2022/06/28 06:34:12;;;;;;;11.38;1.58;;;18.40;99.90;;;;;;5041608;28;20030;-71
2022/06/28 06:36:37;;;;;;;13.63;2.05;;;18.40;99.90;;;;;;5038664;28;20032;-69
2022/06/28 06:39:03;;;;;;;5.47;1.80;;;18.60;99.90;;;;;;5037596;28;20075;-72
2022/06/28 06:41:28;;;;;;;10.48;1.85;;;18.70;99.90;;;;;;5039193;28;20112;-72
2022/06/28 06:43:54;;;;;;;12.15;1.58;;;18.80;99.90;;;;;;5037472;28;20041;-71
2022/06/28 06:46:20;;;;;;;12.45;2.17;;;19.00;99.90;;;;;;5039895;28;20095;-71
2022/06/28 06:48:45;;;;;;;13.10;1.50;;;19.30;99.90;;;;;;5019393;28;20091;-72
2022/06/28 06:51:11;;;;;;;8.60;1.30;;;19.70;99.90;;;;;;5037857;28;20152;-71
2022/06/28 06:53:37;;;;;;;8.68;2.13;;;20.00;99.90;;;;;;5020048;28;20032;-69
2022/06/28 06:56:02;;;;;;;7.78;2.70;;;20.10;99.90;;;;;;5037089;28;20026;-72
2022/06/28 06:58:28;;;;;;;9.57;1.42;;;20.20;99.90;;;;;;5038550;28;20037;-72
2022/06/28 07:00:54;;;;;;;8.45;1.50;;;20.20;99.90;;;;;;5037097;28;20026;-69
2022/06/28 07:03:20;;;;;;;7.30;1.60;;;20.50;99.90;;;;;;5039122;28;20179;-71
2022/06/28 07:05:45;;;;;;;8.30;1.52;;;20.70;99.90;;;;;;5018751;28;20048;-72
2022/06/28 07:08:11;;;;;;;8.05;1.58;;;21.20;99.90;;;;;;5038039;28;20575;-71
2022/06/28 07:10:37;;;;;;;9.05;1.73;;;21.60;99.90;;;;;;5036452;28;20025;-70
2022/06/28 07:13:02;;;;;;;11.07;2.28;;;22.20;99.90;;;;;;5020596;28;20083;-72
2022/06/28 07:15:28;;;;;;;15.23;2.80;;;22.80;99.90;;;;;;5039564;28;20037;-71
2022/06/28 07:17:53;;;;;;;5.00;1.30;;;23.10;99.90;;;;;;5040131;28;20120;-70
2022/06/28 07:20:19;;;;;;;17.83;2.17;;;23.30;99.90;;;;;;5035600;28;20140;-72
2022/06/28 07:22:44;;;;;;;8.40;1.60;;;23.30;99.90;;;;;;5039924;28;20116;-72
2022/06/28 07:25:10;;;;;;;5.57;1.15;;;23.50;99.90;;;;;;5036205;28;20029;-72
2022/06/28 07:27:36;;;;;;;9.50;1.95;;;24.10;99.90;;;;;;5040111;28;20025;-71
2022/06/28 07:30:02;;;;;;;14.05;1.83;;;25.00;99.90;;;;;;5020947;28;20040;-70
2022/06/28 07:32:27;;;;;;;8.30;2.03;;;25.80;99.90;;;;;;5021946;28;20091;-73
2022/06/28 07:34:53;;;;;;;5.35;1.27;;;26.20;99.90;;;;;;5038992;28;20407;-71
2022/06/28 07:37:19;;;;;;;12.13;2.20;;;26.30;99.90;;;;;;5020881;28;20040;-71
2022/06/28 07:39:44;;;;;;;7.57;1.77;;;26.10;99.90;;;;;;5036282;28;20490;-72
2022/06/28 07:42:10;;;;;;;10.88;1.95;;;26.60;99.90;;;;;;5038357;28;20029;-71
2022/06/28 07:44:36;;;;;;;10.15;2.53;;;27.50;99.00;;;;;;5039425;28;20033;-73
2022/06/28 07:47:01;;;;;;;8.65;2.63;;;28.20;98.30;;;;;;5019688;28;20095;-72
2022/06/28 07:52:33;;;;;;;7.18;2.17;;;29.10;97.60;;;;;;5019616;28;20037;-72
2022/06/28 07:54:56;;;;;;;6.70;1.98;;;29.00;94.70;;;;;;5035047;28;20048;-71
2022/06/28 07:57:22;;;;;;;9.82;1.98;;;29.50;92.00;;;;;;5038601;28;20036;-72
2022/06/28 07:59:47;;;;;;;8.20;1.92;;;30.10;91.30;;;;;;5018911;28;20397;-72
2022/06/28 08:02:13;;;;;;;10.65;2.50;;;30.60;90.70;;;;;;5038769;28;20494;-71
2022/06/28 08:04:38;;;;;;;8.00;2.20;;;30.50;90.70;;;;;;5038281;28;20447;-71
2022/06/28 08:07:04;;;;;;;13.63;2.60;;;30.60;90.00;;;;;;5018230;28;20086;-73
2022/06/28 08:09:29;;;;;;;12.60;2.30;;;30.60;88.60;;;;;;5041278;28;20049;-72
2022/06/28 08:11:55;;;;;;;12.38;2.42;;;30.60;87.50;;;;;;5040880;28;20037;-70
2022/06/28 08:14:21;;;;;;;13.27;2.95;;;30.60;85.80;;;;;;5039484;28;20504;-71
2022/06/28 08:16:46;;;;;;;11.32;2.72;;;30.50;85.40;;;;;;5043400;28;20080;-73
2022/06/28 08:19:15;;;;;;;11.27;2.20;;;30.20;83.50;;;;;;5038845;28;20037;-70
2022/06/28 08:21:43;;;;;;;11.20;2.08;;;29.70;84.90;;;;;;5043360;28;20121;-72
2022/06/28 08:24:09;;;;;;;9.47;2.30;;;29.10;85.60;;;;;;5038740;28;20525;-71
2022/06/28 08:26:40;;;;;;;9.63;2.05;;;28.20;86.50;;;;;;5043899;28;20357;-72
2022/06/28 08:29:06;;;;;;;6.35;1.80;;;27.70;89.20;;;;;;5042307;28;20412;-72
2022/06/28 08:31:31;;;;;;;11.98;1.95;;;27.10;89.30;;;;;;5022358;28;20033;-72
2022/06/28 08:33:57;;;;;;;6.43;0.98;;;26.70;88.30;;;;;;5022296;28;20037;-71
2022/06/28 08:36:23;;;;;;;6.25;1.50;;;26.40;89.10;;;;;;5044949;28;20043;-70
2022/06/28 08:38:48;;;;;;;13.73;2.08;;;25.80;90.10;;;;;;5040193;28;20025;-73
2022/06/28 08:41:14;;;;;;;5.70;1.27;;;25.40;90.60;;;;;;5042109;28;20401;-70
2022/06/28 08:43:40;;;;;;;5.78;1.30;;;24.90;91.50;;;;;;5035237;28;20117;-71
2022/06/28 08:46:05;;;;;;;6.82;2.10;;;24.70;90.50;;;;;;5040951;28;20028;-71
2022/06/28 08:48:38;;;;;;;4.00;0.85;;;24.50;92.70;;;;;;5039891;28;20025;-72
2022/06/28 08:51:07;;;;;;;7.32;1.48;;;24.40;92.30;;;;;;5041226;28;20087;-69
2022/06/28 08:53:35;;;;;;;6.72;1.25;;;24.20;91.80;;;;;;5038372;28;20477;-72
2022/06/28 08:56:00;;;;;;;10.25;1.52;;;24.20;91.80;;;;;;5023397;28;20021;-72
2022/06/28 08:58:27;;;;;;;11.48;2.08;;;24.00;92.40;;;;;;5040481;28;20022;-72
2022/06/28 09:00:53;;;;;;;6.55;1.30;;;24.20;92.90;;;;;;5022911;28;20454;-70
2022/06/28 09:03:19;;;;;;;3.80;0.85;;;24.00;91.50;;;;;;5022950;28;20110;-72
2022/06/28 09:05:45;;;;;;;9.88;1.17;;;23.70;92.90;;;;;;5039929;28;20486;-70
2022/06/28 09:08:11;;;;;;;11.15;1.63;;;23.50;94.00;;;;;;5042134;28;20036;-71
2022/06/28 09:10:37;;;;;;;3.10;0.98;;;23.50;94.50;;;;;;5042665;28;20392;-73
2022/06/28 09:13:11;;;;;;;8.52;1.20;;;23.50;93.20;;;;;;5021076;28;20079;-72
2022/06/28 09:15:57;;;;;;;5.03;1.50;;;23.50;93.90;;;;;;5041639;28;20115;-72
2022/06/28 09:18:33;;;;;;;7.05;1.13;;;23.70;93.00;;;;;;5019832;28;20091;-69
2022/06/28 09:20:59;;;;;;;13.82;1.70;;;23.80;94.00;;;;;;5039078;28;20037;-70
2022/06/28 09:23:33;;;;;;;5.78;0.95;;;23.70;92.50;;;;;;5036749;28;20029;-70
2022/06/28 09:26:09;;;;;;;5.47;1.13;;;23.90;92.50;;;;;;5021360;28;20029;-70
2022/06/28 09:28:42;;;;;;;6.75;1.13;;;23.80;92.90;;;;;;5020817;28;20037;-71
2022/06/28 09:31:19;;;;;;;6.00;1.35;;;23.70;93.30;;;;;;5034421;28;20505;-70
2022/06/28 09:34:04;;;;;;;9.02;1.10;;;23.50;92.10;;;;;;5035364;28;20033;-69
2022/06/28 09:36:35;;;;;;;4.57;1.13;;;23.50;92.20;;;;;;5041355;28;20068;-69
2022/06/28 09:39:14;;;;;;;5.75;1.08;;;23.70;93.90;;;;;;5040740;28;20037;-69
2022/06/28 09:41:44;;;;;;;5.53;1.23;;;23.90;93.90;;;;;;5034101;28;20504;-70
2022/06/28 09:44:10;;;;;;;10.50;1.50;;;24.00;93.90;;;;;;5014967;28;20030;-70
2022/06/28 09:46:35;;;;;;;6.45;1.45;;;24.00;92.80;;;;;;5041300;28;20037;-71
2022/06/28 09:49:04;;;;;;;4.50;1.05;;;23.90;93.30;;;;;;5018936;28;20040;-71
2022/06/28 09:51:32;;;;;;;4.88;1.05;;;23.90;93.30;;;;;;5022153;28;20564;-69
2022/06/28 09:54:04;;;;;;;6.78;1.00;;;24.00;94.10;;;;;;5038366;28;20110;-70
2022/06/28 09:56:37;;;;;;;4.53;1.15;;;24.10;91.40;;;;;;5040326;28;20623;-70
2022/06/28 09:59:05;;;;;;;3.42;0.90;;;24.00;91.70;;;;;;5037990;28;20398;-72
2022/06/28 10:01:30;;;;;;;5.40;0.80;;;24.00;93.20;;;;;;5039796;28;20045;-69
2022/06/28 10:03:58;;;;;;;9.43;1.33;;;24.00;92.80;;;;;;5020615;28;20447;-70
2022/06/28 10:06:24;;;;;;;6.25;1.27;;;24.00;92.10;;;;;;5039442;28;20021;-70
2022/06/28 10:08:50;;;;;;;7.43;0.90;;;24.10;92.40;;;;;;5021939;28;20048;-72
2022/06/28 10:11:18;;;;;;;5.47;0.80;;;24.10;92.00;;;;;;5037593;28;20104;-70
2022/06/28 10:16:58;;;;;;;8.95;2.05;;;24.10;92.00;;;;;;5039951;28;20527;-70
2022/06/28 10:19:26;;;;;;;7.13;1.00;;;24.10;92.70;;;;;;5037439;28;20029;-71
2022/06/28 10:21:52;;;;;;;8.00;1.48;;;24.10;92.60;;;;;;5039354;28;20405;-72
2022/06/28 10:24:18;;;;;;;5.28;1.10;;;24.10;91.20;;;;;;5037168;28;20033;-70
2022/06/28 10:27:05;;;;;;;4.68;0.82;;;24.00;90.20;;;;;;5023073;28;20036;-73
2022/06/28 10:29:31;;;;;;;11.70;1.58;;;24.00;90.00;;;;;;5018323;28;20041;-72
2022/06/28 10:31:56;;;;;;;7.65;1.60;;;24.10;91.40;;;;;;5021446;28;20052;-72
2022/06/28 10:34:51;;;;;;;6.30;0.80;;;24.00;90.60;;;;;;5038187;28;20037;-71
2022/06/28 10:37:21;;;;;;;3.55;0.40;;;24.00;90.70;;;;;;5035410;28;20041;-70
2022/06/28 10:39:46;;;;;;;8.15;1.38;;;24.00;91.10;;;;;;5039507;28;20032;-71
2022/06/28 10:42:13;;;;;;;3.28;0.73;;;24.00;91.80;;;;;;5019057;28;20486;-70
2022/06/28 10:44:38;;;;;;;2.75;0.75;;;24.10;89.10;;;;;;5039771;28;20119;-73
2022/06/28 10:47:04;;;;;;;2.15;0.68;;;24.10;89.10;;;;;;5036580;28;20167;-71
2022/06/28 10:49:57;;;;;;;5.60;0.82;;;24.10;90.60;;;;;;5039098;28;20195;-72
2022/06/28 10:52:33;;;;;;;3.65;0.57;;;24.10;91.10;;;;;;5036941;28;20044;-71
2022/06/28 10:54:59;;;;;;;3.72;0.68;;;24.20;90.50;;;;;;5018935;28;20516;-72
2022/06/28 10:57:26;;;;;;;6.63;0.68;;;24.20;90.30;;;;;;5020512;28;20037;-70
2022/06/28 10:59:54;;;;;;;3.97;0.50;;;24.30;90.60;;;;;;5020152;28;20041;-72
2022/06/28 11:02:20;;;;;;;2.17;0.40;;;24.30;89.50;;;;;;5018404;28;20048;-69
2022/06/28 11:04:46;;;;;;;6.38;0.63;;;24.30;88.60;;;;;;5020777;28;20033;-72
2022/06/28 11:07:24;;;;;;;4.80;0.90;;;24.40;89.90;;;;;;5038881;28;20037;-69
2022/06/28 11:10:04;;;;;;;6.28;0.98;;;24.30;89.30;;;;;;5038708;28;20041;-69
2022/06/28 11:12:30;;;;;;;5.20;1.02;;;24.30;88.50;;;;;;5038900;28;20045;-69
2022/06/28 11:15:01;;;;;;;2.88;0.40;;;24.40;90.20;;;;;;5037438;28;20047;-67
2022/06/28 11:17:28;;;;;;;4.45;0.70;;;24.50;86.80;;;;;;5020894;28;20411;-67
2022/06/28 11:19:56;;;;;;;4.50;0.40;;;24.50;88.90;;;;;;5037590;28;20116;-71
2022/06/28 11:22:24;;;;;;;4.97;0.52;;;24.50;88.60;;;;;;5018699;28;20038;-69
2022/06/28 11:24:50;;;;;;;4.65;0.60;;;24.60;86.60;;;;;;5018404;28;20204;-70
2022/06/28 11:27:22;;;;;;;2.70;0.55;;;24.50;87.40;;;;;;5036815;28;20528;-71
2022/06/28 11:29:52;;;;;;;2.40;0.50;;;24.60;85.90;;;;;;5019856;28;20032;-71
2022/06/28 11:32:27;;;;;;;3.20;0.40;;;24.50;86.50;;;;;;5037291;28;20167;-71
2022/06/28 11:35:12;;;;;;;1.85;0.20;;;24.60;86.30;;;;;;5039743;28;20086;-73
2022/06/28 11:37:50;;;;;;;4.03;0.93;;;24.60;88.10;;;;;;5034193;28;20079;-70
2022/06/28 11:40:17;;;;;;;2.33;0.68;;;24.70;88.30;;;;;;5017245;28;20112;-72
2022/06/28 11:42:44;;;;;;;3.60;0.40;;;24.70;85.30;;;;;;5037807;28;20029;-71
2022/06/28 11:45:11;;;;;;;3.97;0.35;;;24.70;85.30;;;;;;5036323;28;20033;-72
2022/06/28 11:47:43;;;;;;;1.77;0.40;;;24.60;85.20;;;;;;5019633;28;20116;-69
2022/06/28 11:50:18;;;;;;;2.10;0.43;;;24.60;87.00;;;;;;5039183;28;20029;-71
2022/06/28 11:52:55;;;;;;;3.35;0.50;;;24.50;85.10;;;;;;5036072;28;20095;-71
2022/06/28 11:55:43;;;;;;;3.67;0.60;;;24.50;85.80;;;;;;5035663;28;20025;-73
2022/06/28 11:58:13;;;;;;;2.75;0.35;;;24.50;87.90;;;;;;5028950;28;20375;-72
2022/06/28 12:00:38;;;;;;;;;;;24.60;86.10;;;;;;5038845;28;20493;-72
2022/06/28 12:03:05;;;;;;;1.05;0.20;;;24.60;82.70;;;;;;5038462;28;19920;-71
2022/06/28 12:05:35;;;;;;;2.70;0.63;;;24.60;84.90;;;;;;5035643;28;20082;-73
2022/06/28 12:08:01;;;;;;;;;;;24.60;85.00;;;;;;5034574;28;20056;-74
2022/06/28 12:10:32;;;;;;;3.65;0.20;;;24.60;84.40;;;;;;5041562;28;19917;-71
2022/06/28 12:13:08;;;;;;;3.58;0.90;;;24.60;83.00;;;;;;5039731;28;20037;-71
2022/06/28 12:15:34;;;;;;;1.95;0.38;;;24.60;82.30;;;;;;5045926;28;20055;-72
2022/06/28 12:18:03;;;;;;;3.95;0.68;;;24.60;82.40;;;;;;5036935;28;20026;-71
2022/06/28 12:20:30;;;;;;;2.15;0.32;;;24.50;84.80;;;;;;5035492;28;20037;-72
2022/06/28 12:22:57;;;;;;;2.63;0.60;;;24.50;86.50;;;;;;5038143;28;20056;-72
2022/06/28 12:25:23;;;;;;;1.88;0.52;;;24.50;83.50;;;;;;5038161;28;20044;-70
2022/06/28 12:27:48;;;;;;;1.17;0.30;;;24.50;84.90;;;;;;5020384;28;20030;-71
2022/06/28 12:30:14;;;;;;;2.55;0.60;;;24.50;85.10;;;;;;5036522;28;20033;-70
2022/06/28 12:32:40;;;;;;;3.67;0.38;;;24.40;83.70;;;;;;5036605;28;20037;-70
2022/06/28 12:35:08;;;;;;;1.65;0.55;;;24.30;82.20;;;;;;5039541;28;20485;-73
2022/06/28 12:37:34;;;;;;;1.15;0.40;;;24.20;83.70;;;;;;5017415;28;20459;-72
2022/06/28 12:40:01;;;;;;;1.02;0.17;;;24.30;85.20;;;;;;5039163;28;20033;-73
2022/06/28 12:42:29;;;;;;;5.03;0.55;;;24.30;87.00;;;;;;5030872;28;20496;-68
2022/06/28 12:44:56;;;;;;;2.30;0.60;;;24.30;87.70;;;;;;5038782;28;20068;-67
2022/06/28 12:47:23;;;;;;;5.10;0.40;;;24.30;85.80;;;;;;5015773;28;20038;-71
2022/06/28 12:49:48;;;;;;;1.02;0.40;;;24.40;84.10;;;;;;5037422;28;20033;-72
2022/06/28 12:52:14;;;;;;;1.27;0.20;;;24.30;85.20;;;;;;5036351;28;20449;-70
2022/06/28 12:54:39;;;;;;;2.25;0.40;;;24.30;82.70;;;;;;5037142;28;20432;-72
2022/06/28 12:57:05;;;;;;;1.63;0.35;;;24.30;86.30;;;;;;5041147;28;20039;-72
2022/06/28 12:59:31;;;;;;;2.55;0.65;;;24.30;85.50;;;;;;5038781;28;20041;-72